Time;durP1;ratioP1;P1;durP2;ratioP2;P2;SDS_P1;SDS_P2;PMS_P1;PMS_P2;Temp;Humidity;BMP_temperature;BMP_pressure;BME280_temperature;BME280_humidity;BME280_pressure;Samples;Min_cycle;Max_cycle;Signal;HPM_P1;HPM_P2
2022/07/02 00:03:21;;;;;;;13.77;12.70;;;15.20;99.90;;;;;;4975096;28;20474;-67
2022/07/02 00:06:39;;;;;;;12.90;11.70;;;15.20;99.90;;;;;;4972410;28;20474;-67
2022/07/02 00:09:36;;;;;;;13.10;12.00;;;15.20;99.90;;;;;;4969008;28;20620;-67
2022/07/02 00:12:46;;;;;;;12.83;11.67;;;15.10;99.90;;;;;;4958068;28;20828;-68
2022/07/02 00:15:53;;;;;;;12.47;11.30;;;15.10;99.90;;;;;;4960071;28;21212;-67
2022/07/02 00:18:53;;;;;;;12.60;11.60;;;15.10;99.90;;;;;;4958130;28;20525;-68
2022/07/02 00:22:17;;;;;;;13.20;12.10;;;15.00;99.90;;;;;;4957032;28;20647;-68
2022/07/02 00:25:40;;;;;;;13.00;11.90;;;15.00;99.90;;;;;;4954724;28;20486;-68
2022/07/02 00:29:18;;;;;;;12.50;11.37;;;14.90;99.90;;;;;;4960355;28;20510;-68
2022/07/02 00:32:21;;;;;;;;;;;;;;;;;;;;;
2022/07/02 00:35:35;;;;;;;13.40;12.20;;;14.90;99.90;;;;;;4956991;28;20594;-70
2022/07/02 00:42:09;;;;;;;13.93;12.87;;;14.90;99.90;;;;;;4957858;28;20637;-67
2022/07/02 00:45:09;;;;;;;13.63;12.60;;;14.80;99.90;;;;;;4953853;28;20655;-67
2022/07/02 00:48:18;;;;;;;12.50;11.30;;;14.80;99.90;;;;;;4957009;28;21215;-67
2022/07/02 00:51:10;;;;;;;12.80;11.80;;;14.80;99.90;;;;;;4957812;28;20479;-66
2022/07/02 00:54:10;;;;;;;12.90;11.80;;;14.70;99.90;;;;;;4956850;28;20467;-67
2022/07/02 00:57:23;;;;;;;13.00;11.90;;;14.70;99.90;;;;;;4958043;28;20537;-67
2022/07/02 01:00:35;;;;;;;13.50;12.50;;;14.70;99.90;;;;;;4960146;28;20470;-67
2022/07/02 01:03:42;;;;;;;12.60;11.60;;;14.70;99.90;;;;;;4956545;28;20520;-67
2022/07/02 01:06:55;;;;;;;11.43;10.43;;;14.60;99.90;;;;;;4955408;28;20462;-66
2022/07/02 01:13:12;;;;;;;12.17;11.17;;;14.60;99.90;;;;;;4957342;28;20469;-67
2022/07/02 01:16:24;;;;;;;12.47;11.43;;;14.60;99.90;;;;;;4956762;28;21054;-67
2022/07/02 01:19:33;;;;;;;12.77;11.70;;;14.50;99.90;;;;;;4963149;28;20494;-69
2022/07/02 01:22:33;;;;;;;12.17;11.17;;;14.50;99.90;;;;;;4962060;28;21276;-67
2022/07/02 01:25:36;;;;;;;11.47;10.57;;;14.50;99.90;;;;;;4961277;28;21017;-67
2022/07/02 01:28:34;;;;;;;12.53;11.53;;;14.40;99.90;;;;;;4961142;28;20461;-67
2022/07/02 01:31:25;;;;;;;11.90;10.90;;;14.40;99.90;;;;;;4961273;28;20928;-66
2022/07/02 01:34:59;;;;;;;10.70;9.63;;;14.40;99.90;;;;;;4962410;28;20474;-67
2022/07/02 01:38:28;;;;;;;;;;;;;;;;;;;;;
2022/07/02 01:41:46;;;;;;;11.53;10.57;;;14.40;99.90;;;;;;4923442;28;20485;-67
2022/07/02 01:45:08;;;;;;;11.30;10.40;;;14.30;99.90;;;;;;4960272;28;20477;-67
2022/07/02 01:48:12;;;;;;;11.13;10.20;;;14.30;99.90;;;;;;4958935;28;20462;-67
2022/07/02 01:51:44;;;;;;;11.70;10.80;;;14.30;99.90;;;;;;4957817;28;20518;-67
2022/07/02 01:58:47;;;;;;;11.97;10.97;;;14.30;99.90;;;;;;4958208;28;20548;-66
2022/07/02 02:01:56;;;;;;;11.97;10.77;;;14.30;99.90;;;;;;4959726;28;20849;-67
2022/07/02 02:05:24;;;;;;;11.17;10.10;;;14.20;99.90;;;;;;4960830;28;20481;-67
2022/07/02 02:08:31;;;;;;;11.50;10.60;;;14.10;99.90;;;;;;4960346;28;20448;-67
2022/07/02 02:11:40;;;;;;;10.80;9.87;;;14.20;99.90;;;;;;4958084;28;20505;-67
2022/07/02 02:15:19;;;;;;;10.70;9.90;;;14.20;99.90;;;;;;4960556;28;20482;-67
2022/07/02 02:18:34;;;;;;;10.27;9.47;;;14.20;99.90;;;;;;4958445;28;20981;-67
2022/07/02 02:21:35;;;;;;;11.47;10.47;;;14.10;99.90;;;;;;4960786;28;20557;-67
2022/07/02 02:24:42;;;;;;;10.03;9.13;;;14.20;99.90;;;;;;4957331;28;20861;-67
2022/07/02 02:27:42;;;;;;;11.23;10.23;;;14.10;99.90;;;;;;4959273;28;20452;-67
2022/07/02 02:31:04;;;;;;;11.77;10.60;;;14.10;99.90;;;;;;4960223;28;20475;-67
2022/07/02 02:34:14;;;;;;;;;;;;;;;;;;;;;
2022/07/02 02:44:11;;;;;;;10.00;9.30;;;14.10;99.90;;;;;;4959807;28;20553;-67
2022/07/02 02:47:21;;;;;;;10.23;9.33;;;14.00;99.90;;;;;;4960743;28;20487;-67
2022/07/02 02:50:37;;;;;;;9.37;8.67;;;14.00;99.90;;;;;;4971067;28;20466;-67
2022/07/02 02:53:31;;;;;;;9.67;8.97;;;14.00;99.90;;;;;;4975510;28;20481;-67
2022/07/02 02:56:33;;;;;;;9.90;8.93;;;14.00;99.90;;;;;;4974739;28;20443;-66
2022/07/02 03:00:00;;;;;;;10.03;9.03;;;14.00;99.90;;;;;;4964063;28;20439;-68
2022/07/02 03:03:26;;;;;;;10.03;9.07;;;14.00;99.90;;;;;;4952697;28;20477;-68
2022/07/02 03:06:35;;;;;;;10.90;8.77;;;14.00;99.90;;;;;;4954067;28;20481;-68
2022/07/02 03:09:47;;;;;;;8.77;8.17;;;14.00;99.90;;;;;;4959920;28;20454;-68
2022/07/02 03:13:36;;;;;;;8.63;7.93;;;14.00;99.90;;;;;;4959481;28;20466;-68
2022/07/02 03:16:39;;;;;;;8.73;8.03;;;13.90;99.90;;;;;;4961030;28;20564;-68
2022/07/02 03:19:45;;;;;;;9.00;8.27;;;13.90;99.90;;;;;;4960342;28;20458;-68
2022/07/02 03:22:47;;;;;;;9.20;8.50;;;13.90;99.90;;;;;;4959857;28;20534;-68
2022/07/02 03:26:08;;;;;;;8.87;8.07;;;13.90;99.90;;;;;;4959037;28;20487;-68
2022/07/02 03:29:13;;;;;;;8.73;7.97;;;13.90;99.90;;;;;;4960071;28;20488;-68
2022/07/02 03:32:31;;;;;;;;;;;;;;;;;;;;;
2022/07/02 03:35:35;;;;;;;9.67;8.70;;;13.90;99.90;;;;;;4959810;28;20489;-68
2022/07/02 03:38:33;;;;;;;9.40;8.60;;;13.90;99.90;;;;;;4958358;28;20455;-68
2022/07/02 03:45:06;;;;;;;8.67;7.97;;;14.00;99.90;;;;;;4960014;28;20467;-68
2022/07/02 03:48:08;;;;;;;8.93;8.17;;;14.00;99.90;;;;;;4961302;28;20507;-68
2022/07/02 03:51:05;;;;;;;8.60;7.80;;;13.90;99.90;;;;;;4958450;28;20517;-68
2022/07/02 03:54:12;;;;;;;9.70;8.90;;;14.00;99.90;;;;;;4975268;28;21098;-68
2022/07/02 03:57:00;;;;;;;8.23;7.63;;;14.00;99.90;;;;;;4979691;28;20489;-69
2022/07/02 03:59:59;;;;;;;9.50;8.80;;;13.90;99.90;;;;;;4969288;28;20573;-68
2022/07/02 04:03:17;;;;;;;9.63;8.80;;;14.00;99.90;;;;;;4958489;28;20458;-68
2022/07/02 04:06:14;;;;;;;8.33;7.60;;;14.00;99.90;;;;;;4954345;28;20517;-68
2022/07/02 04:09:07;;;;;;;9.20;8.40;;;14.10;99.90;;;;;;4959490;28;20565;-68
2022/07/02 04:12:00;;;;;;;9.27;8.37;;;14.10;99.90;;;;;;4958485;28;20621;-68
2022/07/02 04:15:04;;;;;;;9.10;8.30;;;14.20;99.90;;;;;;4955072;28;20902;-68
2022/07/02 04:18:15;;;;;;;8.73;8.10;;;14.20;99.90;;;;;;4955080;28;20544;-68
2022/07/02 04:21:11;;;;;;;9.00;8.20;;;14.30;99.90;;;;;;4959914;28;20501;-68
2022/07/02 04:24:00;;;;;;;8.53;7.83;;;14.30;99.90;;;;;;4954359;28;20534;-68
2022/07/02 04:27:02;;;;;;;9.07;8.27;;;14.40;99.90;;;;;;4956675;28;20489;-68
2022/07/02 04:33:44;;;;;;;7.93;7.23;;;14.50;99.90;;;;;;4940541;28;21074;-68
2022/07/02 04:36:42;;;;;;;8.93;8.10;;;14.60;99.90;;;;;;4939681;28;20540;-68
2022/07/02 04:43:03;;;;;;;8.33;7.67;;;14.60;99.90;;;;;;4941410;28;20634;-68
2022/07/02 04:46:14;;;;;;;8.73;7.97;;;14.70;99.90;;;;;;4940534;28;20471;-68
2022/07/02 04:49:18;;;;;;;9.77;8.20;;;14.70;99.90;;;;;;4941051;28;20458;-68
2022/07/02 04:52:19;;;;;;;8.13;7.33;;;14.80;99.90;;;;;;4937309;28;20585;-67
2022/07/02 04:58:39;;;;;;;8.20;7.33;;;14.90;99.90;;;;;;4958773;28;20454;-68
2022/07/02 05:01:37;;;;;;;8.30;7.00;;;14.90;99.90;;;;;;4957876;28;20487;-68
2022/07/02 05:05:08;;;;;;;7.63;7.03;;;15.00;99.90;;;;;;4955461;28;21011;-67
2022/07/02 05:08:26;;;;;;;7.43;6.83;;;15.10;99.90;;;;;;4951174;28;20611;-67
2022/07/02 05:11:42;;;;;;;7.40;6.80;;;15.10;99.90;;;;;;4957511;28;20540;-67
2022/07/02 05:14:59;;;;;;;7.47;6.70;;;15.20;99.90;;;;;;4955418;28;20478;-68
2022/07/02 05:18:19;;;;;;;7.67;7.10;;;15.20;99.90;;;;;;4946694;28;20521;-67
2022/07/02 05:21:30;;;;;;;8.23;6.43;;;15.30;99.90;;;;;;4956053;28;20829;-67
2022/07/02 05:24:43;;;;;;;6.57;6.07;;;15.30;99.90;;;;;;4958613;28;20482;-67
2022/07/02 05:31:14;;;;;;;6.50;6.00;;;15.40;99.90;;;;;;4958473;28;20576;-68
2022/07/02 05:34:29;;;;;;;6.00;5.60;;;15.50;99.90;;;;;;4957283;28;20470;-69
2022/07/02 05:37:35;;;;;;;6.17;5.67;;;15.50;99.90;;;;;;4967126;28;20541;-67
2022/07/02 05:40:46;;;;;;;5.90;5.50;;;15.60;99.90;;;;;;4972083;28;20513;-67
2022/07/02 05:44:06;;;;;;;6.27;5.77;;;15.70;99.90;;;;;;4970109;28;20508;-68
2022/07/02 05:47:24;;;;;;;5.70;5.27;;;15.70;99.90;;;;;;4944651;28;20486;-67
2022/07/02 05:50:34;;;;;;;5.70;5.10;;;15.80;99.90;;;;;;4953480;28;20579;-67
2022/07/02 05:53:45;;;;;;;5.27;4.90;;;15.80;99.90;;;;;;4953608;28;20977;-67
2022/07/02 06:00:06;;;;;;;7.10;5.40;;;16.00;99.90;;;;;;4945019;28;21003;-68
2022/07/02 06:02:54;;;;;;;5.77;5.07;;;16.00;99.90;;;;;;4953118;28;20458;-68
2022/07/02 06:09:14;;;;;;;4.80;4.40;;;16.20;99.90;;;;;;4937162;28;20452;-67
2022/07/02 06:12:11;;;;;;;4.20;3.80;;;16.30;99.90;;;;;;4958236;28;20482;-67
2022/07/02 06:15:00;;;;;;;5.20;4.40;;;16.40;99.90;;;;;;4956205;28;20524;-68
2022/07/02 06:17:49;;;;;;;5.43;4.30;;;16.40;99.90;;;;;;4961641;28;20620;-69
2022/07/02 06:20:52;;;;;;;5.13;4.60;;;16.50;99.90;;;;;;4959465;28;20509;-68
2022/07/02 06:23:45;;;;;;;3.77;3.47;;;16.50;99.90;;;;;;4959468;28;20466;-69
2022/07/02 06:26:42;;;;;;;3.90;3.60;;;16.50;99.90;;;;;;4961913;28;20844;-68
2022/07/02 06:29:36;;;;;;;3.17;2.90;;;16.60;99.90;;;;;;4955069;28;20931;-68
2022/07/02 06:32:27;;;;;;;4.60;3.50;;;16.60;99.90;;;;;;4957481;28;20470;-67
2022/07/02 06:35:20;;;;;;;3.93;2.93;;;16.70;99.90;;;;;;4956520;28;20588;-68
2022/07/02 06:38:14;;;;;;;2.57;2.37;;;16.80;99.90;;;;;;4955999;28;20455;-68
2022/07/02 06:42:18;;;;;;;5.37;3.33;;;16.80;99.90;;;;;;4954712;28;21008;-68
2022/07/02 06:44:27;;;;;;;5.97;3.43;;;16.90;99.90;;;;;;4959094;28;20598;-66
2022/07/02 06:47:17;;;;;;;5.50;3.27;;;17.00;99.90;;;;;;4958258;28;20521;-68
2022/07/02 06:50:18;;;;;;;3.13;2.50;;;17.00;99.90;;;;;;4957160;28;20639;-67
2022/07/02 06:53:08;;;;;;;3.20;2.50;;;17.10;99.90;;;;;;4957808;28;20466;-68
2022/07/02 06:55:56;;;;;;;3.10;2.00;;;17.20;99.90;;;;;;4957782;28;20978;-68
2022/07/02 06:58:47;;;;;;;2.50;2.27;;;17.20;99.90;;;;;;4958156;28;20491;-70
2022/07/02 07:01:42;;;;;;;5.80;2.37;;;17.30;99.90;;;;;;4958560;28;20573;-68
2022/07/02 07:04:45;;;;;;;3.17;1.80;;;17.40;99.90;;;;;;4956055;28;20596;-68
2022/07/02 07:07:34;;;;;;;2.93;2.27;;;17.50;99.90;;;;;;4953067;28;20482;-68
2022/07/02 07:10:26;;;;;;;3.17;2.07;;;17.60;99.90;;;;;;4958188;28;21069;-68
2022/07/02 07:13:14;;;;;;;2.90;2.00;;;17.70;99.90;;;;;;4955058;28;20530;-70
2022/07/02 07:16:06;;;;;;;3.40;2.03;;;17.80;99.90;;;;;;4955593;28;21046;-68
2022/07/02 07:18:57;;;;;;;3.53;2.30;;;17.80;99.90;;;;;;4954415;28;20557;-68
2022/07/02 07:21:47;;;;;;;2.60;2.20;;;17.90;99.90;;;;;;4958915;28;20514;-68
2022/07/02 07:24:35;;;;;;;2.13;1.90;;;18.00;99.90;;;;;;4956625;28;20564;-68
2022/07/02 07:27:23;;;;;;;3.50;2.67;;;18.10;99.90;;;;;;4953648;28;20553;-67
2022/07/02 07:30:15;;;;;;;2.47;2.20;;;18.10;99.90;;;;;;4947236;28;21530;-67
2022/07/02 07:33:05;;;;;;;5.53;2.73;;;18.20;99.90;;;;;;4953742;28;20804;-68
2022/07/02 07:35:54;;;;;;;2.10;1.90;;;18.30;99.90;;;;;;4956013;28;20490;-67
2022/07/02 07:38:50;;;;;;;3.60;2.33;;;18.30;99.90;;;;;;4959423;28;20497;-67
2022/07/02 07:41:39;;;;;;;2.47;2.27;;;18.40;99.90;;;;;;4956585;28;20477;-67
2022/07/02 07:44:29;;;;;;;2.50;2.30;;;18.40;99.90;;;;;;4958051;28;20462;-68
2022/07/02 07:47:28;;;;;;;4.40;2.53;;;18.40;99.90;;;;;;4955256;28;20455;-68
2022/07/02 07:50:16;;;;;;;3.70;2.10;;;18.50;99.90;;;;;;4957213;28;21086;-67
2022/07/02 07:53:04;;;;;;;3.40;2.30;;;18.60;99.90;;;;;;4959953;28;20466;-68
2022/07/02 07:55:55;;;;;;;3.00;1.93;;;18.60;99.90;;;;;;4954460;28;20515;-68
2022/07/02 07:58:45;;;;;;;5.37;2.40;;;18.70;99.90;;;;;;4941201;28;20486;-68
2022/07/02 08:01:33;;;;;;;3.33;2.03;;;18.80;99.90;;;;;;4947256;28;21866;-68
2022/07/02 08:04:21;;;;;;;3.30;2.33;;;18.80;99.90;;;;;;4948630;28;20506;-67
2022/07/02 08:07:13;;;;;;;4.07;2.63;;;18.90;99.90;;;;;;4956970;28;20462;-67
2022/07/02 08:10:01;;;;;;;2.50;1.90;;;18.90;99.90;;;;;;4951265;28;20959;-67
2022/07/02 08:12:51;;;;;;;6.70;2.60;;;19.00;99.90;;;;;;4949314;28;20454;-68
2022/07/02 08:15:42;;;;;;;3.00;2.03;;;19.10;99.90;;;;;;4946812;28;20504;-67
2022/07/02 08:18:52;;;;;;;4.93;2.33;;;19.10;99.90;;;;;;4949188;28;22632;-68
2022/07/02 08:21:41;;;;;;;3.37;2.20;;;19.20;99.90;;;;;;4952178;28;20482;-67
2022/07/02 08:24:29;;;;;;;2.60;2.13;;;19.30;99.90;;;;;;4951966;28;20571;-68
2022/07/02 08:27:18;;;;;;;5.40;2.33;;;19.40;99.90;;;;;;4957238;28;20529;-68
2022/07/02 08:30:09;;;;;;;5.37;2.60;;;19.40;99.90;;;;;;4970770;28;20603;-69
2022/07/02 08:32:59;;;;;;;2.50;1.90;;;19.50;99.90;;;;;;4975483;28;20493;-68
2022/07/02 08:35:47;;;;;;;2.00;1.90;;;19.50;99.90;;;;;;4959368;28;20986;-68
2022/07/02 08:38:36;;;;;;;3.60;2.10;;;19.60;99.90;;;;;;4957292;28;20450;-68
2022/07/02 08:41:27;;;;;;;2.80;2.50;;;19.70;99.90;;;;;;4955714;28;20550;-68
2022/07/02 08:44:17;;;;;;;3.73;2.00;;;19.90;99.90;;;;;;4956703;28;20487;-67
2022/07/02 08:47:09;;;;;;;3.47;2.03;;;20.00;99.90;;;;;;4959369;28;20465;-68
2022/07/02 08:50:05;;;;;;;4.83;2.13;;;20.00;99.90;;;;;;4953921;28;20557;-70
2022/07/02 08:52:55;;;;;;;1.90;1.70;;;20.10;99.90;;;;;;4960210;28;20557;-67
2022/07/02 08:55:44;;;;;;;2.20;1.63;;;20.10;99.90;;;;;;4956460;28;20511;-67
2022/07/02 08:58:33;;;;;;;3.57;1.60;;;20.10;99.90;;;;;;4954827;28;20474;-68
2022/07/02 09:01:23;;;;;;;3.83;1.77;;;20.20;99.90;;;;;;4961341;28;20471;-68
2022/07/02 09:04:17;;;;;;;2.13;1.80;;;20.20;99.90;;;;;;4964924;28;20494;-68
2022/07/02 09:07:07;;;;;;;2.13;1.90;;;20.20;99.90;;;;;;4961091;28;20477;-67
2022/07/02 09:09:58;;;;;;;2.30;2.10;;;20.30;99.90;;;;;;4958725;28;20565;-67
2022/07/02 09:12:47;;;;;;;2.13;1.77;;;20.40;99.90;;;;;;4962405;28;20466;-67
2022/07/02 09:15:38;;;;;;;3.57;2.10;;;20.40;99.90;;;;;;4959563;28;20540;-68
2022/07/02 09:18:26;;;;;;;2.13;1.90;;;20.50;99.90;;;;;;4961820;28;20467;-67
2022/07/02 09:21:16;;;;;;;2.87;1.83;;;20.60;99.90;;;;;;4963467;28;20938;-67
2022/07/02 09:24:05;;;;;;;6.13;2.00;;;20.80;99.90;;;;;;4956123;28;20479;-68
2022/07/02 09:27:00;;;;;;;2.20;1.97;;;20.80;99.90;;;;;;4964220;28;21334;-68
2022/07/02 09:29:50;;;;;;;1.63;1.53;;;20.80;99.90;;;;;;4959676;28;20489;-68
2022/07/02 09:32:40;;;;;;;2.20;1.80;;;20.80;99.90;;;;;;4961576;28;20470;-68
2022/07/02 09:35:29;;;;;;;2.03;1.70;;;20.90;99.90;;;;;;4947656;28;20494;-68
2022/07/02 09:38:18;;;;;;;2.57;1.53;;;20.90;99.90;;;;;;4957964;28;20486;-68
2022/07/02 09:41:12;;;;;;;2.40;1.60;;;21.00;99.90;;;;;;4960393;28;20593;-68
2022/07/02 09:44:02;;;;;;;2.47;1.37;;;21.00;99.90;;;;;;4959997;28;20839;-68
2022/07/02 09:46:51;;;;;;;1.93;1.53;;;21.20;99.90;;;;;;4960755;28;20469;-68
2022/07/02 09:49:47;;;;;;;1.53;1.43;;;21.30;99.90;;;;;;4959926;28;20475;-68
2022/07/02 09:52:36;;;;;;;3.03;1.30;;;21.30;99.90;;;;;;4960759;28;20999;-68
2022/07/02 09:55:28;;;;;;;1.83;1.27;;;21.40;99.90;;;;;;4961406;28;20501;-67
2022/07/02 09:58:24;;;;;;;2.20;1.33;;;21.50;99.90;;;;;;4960851;28;20566;-68
2022/07/02 10:01:20;;;;;;;2.60;1.50;;;21.50;99.90;;;;;;4958063;28;20483;-68
2022/07/02 10:04:09;;;;;;;1.87;1.77;;;21.50;99.90;;;;;;4952830;28;20580;-68
2022/07/02 10:06:59;;;;;;;6.40;5.30;;;21.50;99.90;;;;;;4952210;28;20601;-68
2022/07/02 10:09:47;;;;;;;1.70;1.60;;;21.50;99.90;;;;;;4959645;28;20864;-68
2022/07/02 10:12:42;;;;;;;1.83;1.20;;;21.60;99.90;;;;;;4958923;28;21032;-68
2022/07/02 10:15:36;;;;;;;1.50;1.40;;;21.70;99.90;;;;;;4953405;28;20532;-68
2022/07/02 10:18:25;;;;;;;2.63;1.40;;;21.70;99.90;;;;;;4958836;28;22418;-68
2022/07/02 10:21:15;;;;;;;3.00;1.90;;;21.80;99.90;;;;;;4957429;28;20482;-69
2022/07/02 10:24:04;;;;;;;3.30;1.30;;;21.80;99.90;;;;;;4953883;28;20501;-68
2022/07/02 10:26:53;;;;;;;1.77;1.33;;;21.90;99.90;;;;;;4951740;28;20556;-68
2022/07/02 10:29:44;;;;;;;1.50;1.40;;;21.90;99.90;;;;;;4955312;28;20576;-68
2022/07/02 10:32:41;;;;;;;1.40;1.30;;;21.80;99.90;;;;;;4956860;28;20499;-68
2022/07/02 10:35:31;;;;;;;1.60;1.50;;;21.80;99.90;;;;;;4955118;28;20540;-68
2022/07/02 10:38:28;;;;;;;2.10;1.53;;;21.80;99.90;;;;;;4957761;28;20568;-68
2022/07/02 10:41:25;;;;;;;1.90;1.20;;;21.80;99.90;;;;;;4960860;28;20562;-69
2022/07/02 10:44:15;;;;;;;3.63;1.40;;;21.80;99.90;;;;;;4957386;28;20483;-68
2022/07/02 10:47:05;;;;;;;1.67;1.30;;;21.80;99.90;;;;;;4960836;28;20478;-67
2022/07/02 10:50:03;;;;;;;1.90;1.27;;;21.90;99.90;;;;;;4956815;28;20569;-67
2022/07/02 10:52:53;;;;;;;2.00;1.50;;;22.00;99.90;;;;;;4955554;28;21081;-67
2022/07/02 10:55:43;;;;;;;1.50;1.40;;;22.10;99.90;;;;;;4956303;28;20528;-65
2022/07/02 10:58:34;;;;;;;1.40;1.30;;;22.20;99.90;;;;;;4956558;28;20579;-65
2022/07/02 11:01:27;;;;;;;2.27;1.40;;;22.40;99.90;;;;;;4944521;28;21002;-65
2022/07/02 11:04:22;;;;;;;1.57;1.33;;;22.50;99.90;;;;;;4955045;28;20479;-65
2022/07/02 11:07:11;;;;;;;1.30;1.20;;;22.40;99.90;;;;;;4955117;28;20467;-65
2022/07/02 11:10:07;;;;;;;2.03;1.30;;;22.40;99.90;;;;;;4959564;28;20490;-66
2022/07/02 11:13:00;;;;;;;1.47;1.10;;;22.50;99.90;;;;;;4952065;28;20783;-67
2022/07/02 11:15:50;;;;;;;3.17;1.63;;;22.70;99.90;;;;;;4954234;28;20490;-67
2022/07/02 11:18:48;;;;;;;1.40;1.30;;;22.70;99.90;;;;;;4955707;28;20486;-68
2022/07/02 11:21:42;;;;;;;2.63;1.20;;;22.80;99.90;;;;;;4951498;28;20470;-66
2022/07/02 11:24:32;;;;;;;2.10;1.40;;;22.80;99.90;;;;;;4951993;28;20493;-67
2022/07/02 11:27:20;;;;;;;1.77;1.23;;;22.70;99.90;;;;;;4950097;28;20969;-66
2022/07/02 11:30:09;;;;;;;1.53;1.43;;;22.70;99.90;;;;;;4952119;28;20490;-68
2022/07/02 11:32:59;;;;;;;1.50;1.40;;;22.70;99.90;;;;;;4955516;28;20458;-67
2022/07/02 11:35:51;;;;;;;1.97;1.47;;;22.80;99.90;;;;;;4946302;28;20580;-67
2022/07/02 11:38:44;;;;;;;2.20;1.10;;;22.90;99.90;;;;;;4950229;28;20732;-67
2022/07/02 11:41:37;;;;;;;5.63;1.60;;;23.00;99.90;;;;;;4949954;28;21010;-68
2022/07/02 11:44:28;;;;;;;1.40;1.30;;;23.10;99.90;;;;;;4951668;28;20617;-68
2022/07/02 11:47:16;;;;;;;1.40;1.30;;;23.20;99.90;;;;;;4950328;28;20450;-67
2022/07/02 11:50:05;;;;;;;1.73;1.30;;;23.30;99.90;;;;;;4951253;28;20577;-67
2022/07/02 11:52:57;;;;;;;1.40;1.20;;;23.30;99.90;;;;;;4951491;28;20665;-67
2022/07/02 11:55:46;;;;;;;1.50;1.40;;;23.20;99.90;;;;;;4949961;28;21086;-67
2022/07/02 11:58:42;;;;;;;1.70;1.30;;;23.20;99.90;;;;;;4951073;28;20467;-67
2022/07/02 12:01:33;;;;;;;2.10;1.20;;;23.30;99.90;;;;;;4945787;28;20578;-66
2022/07/02 12:04:23;;;;;;;1.93;1.40;;;23.30;99.90;;;;;;4944771;28;20497;-67
2022/07/02 12:07:12;;;;;;;1.67;1.53;;;23.30;99.90;;;;;;4949153;28;20511;-67
2022/07/02 12:10:00;;;;;;;4.40;1.40;;;23.20;99.90;;;;;;4953086;28;20568;-67
2022/07/02 12:12:49;;;;;;;3.47;1.20;;;23.10;99.90;;;;;;4954254;28;20578;-66
2022/07/02 12:15:47;;;;;;;1.87;1.60;;;23.10;99.90;;;;;;4956040;28;20486;-67
2022/07/02 12:18:36;;;;;;;1.30;1.30;;;23.10;99.90;;;;;;4953107;28;20481;-67
2022/07/02 12:21:31;;;;;;;1.67;1.57;;;23.10;99.90;;;;;;4954242;28;21261;-66
2022/07/02 12:24:22;;;;;;;2.20;1.60;;;23.30;99.90;;;;;;4947153;28;22287;-67
2022/07/02 12:27:10;;;;;;;1.50;1.40;;;23.20;99.90;;;;;;4949556;28;20512;-67
2022/07/02 12:30:11;;;;;;;1.90;1.37;;;23.30;99.90;;;;;;4954746;28;20573;-68
2022/07/02 12:33:03;;;;;;;1.80;1.30;;;23.40;99.90;;;;;;4949906;28;20468;-67
2022/07/02 12:36:00;;;;;;;1.60;1.50;;;23.40;99.90;;;;;;4953529;28;20510;-68
2022/07/02 12:38:49;;;;;;;3.23;1.50;;;23.50;99.90;;;;;;4952809;28;20594;-68
2022/07/02 12:41:38;;;;;;;1.97;1.33;;;23.60;99.90;;;;;;4954004;28;20553;-67
2022/07/02 12:44:26;;;;;;;1.90;1.77;;;23.70;99.90;;;;;;4952223;28;20553;-67
2022/07/02 12:47:23;;;;;;;1.77;1.30;;;23.70;99.90;;;;;;4955652;28;21073;-67
2022/07/02 12:50:14;;;;;;;1.60;1.50;;;23.60;99.90;;;;;;4953118;28;20479;-67
2022/07/02 12:53:05;;;;;;;2.10;1.37;;;23.60;99.90;;;;;;4954385;28;20470;-67
2022/07/02 12:55:55;;;;;;;1.63;1.10;;;23.70;99.90;;;;;;4952077;28;20478;-67
2022/07/02 12:58:43;;;;;;;2.00;1.33;;;23.90;99.90;;;;;;4955513;28;20552;-67
2022/07/02 13:01:32;;;;;;;1.63;1.50;;;24.00;99.90;;;;;;4954705;28;20478;-67
2022/07/02 13:04:26;;;;;;;2.10;1.43;;;24.20;99.90;;;;;;4967361;28;20907;-69
2022/07/02 13:07:15;;;;;;;2.03;1.57;;;24.10;99.90;;;;;;4968941;28;20447;-67
2022/07/02 13:10:04;;;;;;;1.90;1.33;;;24.00;99.90;;;;;;4957987;28;20532;-68
2022/07/02 13:12:53;;;;;;;2.00;1.43;;;24.10;99.90;;;;;;4962908;28;21005;-67
2022/07/02 13:15:43;;;;;;;1.63;1.53;;;24.20;99.90;;;;;;4960622;28;20489;-68
2022/07/02 13:18:31;;;;;;;1.97;1.10;;;24.40;99.90;;;;;;4960277;28;21163;-68
2022/07/02 13:21:21;;;;;;;1.80;1.10;;;24.60;99.90;;;;;;4949553;28;20621;-68
2022/07/02 13:24:09;;;;;;;1.40;1.30;;;24.80;99.90;;;;;;4952661;28;20498;-67
2022/07/02 13:26:57;;;;;;;2.40;1.73;;;24.80;99.90;;;;;;4948866;28;20494;-69
2022/07/02 13:29:46;;;;;;;2.20;1.20;;;24.80;99.90;;;;;;4954179;28;20537;-69
2022/07/02 13:32:34;;;;;;;3.17;1.33;;;24.70;99.90;;;;;;4957323;28;20455;-69
2022/07/02 13:35:22;;;;;;;1.60;1.17;;;24.80;99.90;;;;;;4954616;28;20572;-68
2022/07/02 13:38:13;;;;;;;1.40;1.30;;;24.80;99.90;;;;;;4953142;28;20470;-68
2022/07/02 13:41:02;;;;;;;1.30;1.20;;;25.00;99.90;;;;;;4952561;28;20474;-69
2022/07/02 13:43:50;;;;;;;2.17;1.40;;;25.10;99.90;;;;;;4949767;28;20619;-69
2022/07/02 13:46:38;;;;;;;1.20;1.10;;;25.20;99.90;;;;;;4955602;28;20464;-69
2022/07/02 13:49:27;;;;;;;1.47;1.37;;;25.20;99.90;;;;;;4957697;28;20557;-68
2022/07/02 13:52:18;;;;;;;1.57;1.47;;;25.20;99.90;;;;;;4946378;28;20551;-69
2022/07/02 13:55:08;;;;;;;1.50;1.40;;;25.10;99.90;;;;;;4952134;28;20513;-67
2022/07/02 13:57:57;;;;;;;1.20;1.20;;;25.10;99.90;;;;;;4952028;28;21317;-68
2022/07/02 14:00:45;;;;;;;3.37;1.70;;;25.10;99.90;;;;;;4950349;28;20622;-68
2022/07/02 14:03:36;;;;;;;1.37;1.27;;;25.20;99.90;;;;;;4942791;28;20458;-69
2022/07/02 14:06:24;;;;;;;2.17;1.57;;;25.00;99.90;;;;;;4947800;28;20459;-68
2022/07/02 14:09:14;;;;;;;2.27;1.30;;;25.00;99.90;;;;;;4957756;28;20525;-68
2022/07/02 14:12:05;;;;;;;1.90;1.50;;;24.90;99.90;;;;;;4958937;28;20894;-69
2022/07/02 14:14:53;;;;;;;1.70;1.57;;;24.90;99.90;;;;;;4957981;28;20486;-68
2022/07/02 14:17:41;;;;;;;1.67;1.50;;;24.90;99.90;;;;;;4957568;28;20531;-69
2022/07/02 14:20:32;;;;;;;1.60;1.47;;;24.90;99.90;;;;;;4954678;28;20525;-68
2022/07/02 14:23:34;;;;;;;1.50;1.40;;;24.80;99.90;;;;;;4953682;28;20458;-68
2022/07/02 14:26:22;;;;;;;1.70;1.60;;;24.90;99.90;;;;;;4956147;28;20614;-69
2022/07/02 14:29:12;;;;;;;1.90;1.70;;;25.00;99.90;;;;;;4961468;28;20530;-68
2022/07/02 14:32:00;;;;;;;1.60;1.47;;;25.00;99.90;;;;;;4956918;28;20673;-68
2022/07/02 14:34:48;;;;;;;2.13;1.43;;;25.00;99.90;;;;;;4957640;28;20470;-68
2022/07/02 14:37:36;;;;;;;1.60;1.50;;;25.10;99.90;;;;;;4959792;28;20565;-68
2022/07/02 14:40:25;;;;;;;1.53;1.43;;;25.20;99.90;;;;;;4956063;28;20613;-67
2022/07/02 14:43:14;;;;;;;2.00;1.67;;;25.40;99.90;;;;;;4955830;28;20459;-67
2022/07/02 14:46:03;;;;;;;1.50;1.30;;;25.60;99.90;;;;;;4956615;28;20482;-68
2022/07/02 14:48:54;;;;;;;2.53;1.30;;;25.60;99.90;;;;;;4952527;28;20474;-68
2022/07/02 14:51:43;;;;;;;1.50;1.40;;;25.50;99.90;;;;;;4953177;28;20493;-68
2022/07/02 14:54:31;;;;;;;1.50;1.40;;;25.50;99.90;;;;;;4956968;28;21089;-67
2022/07/02 14:57:19;;;;;;;1.70;1.50;;;25.70;99.90;;;;;;4956853;28;20998;-68
2022/07/02 15:00:12;;;;;;;2.50;1.70;;;25.90;99.90;;;;;;4959607;28;20816;-68
2022/07/02 15:03:02;;;;;;;2.03;1.83;;;26.10;99.90;;;;;;4953064;28;20442;-68
2022/07/02 15:05:50;;;;;;;1.63;1.50;;;26.30;99.90;;;;;;4952668;28;20493;-67
2022/07/02 15:08:38;;;;;;;1.60;1.50;;;26.40;99.90;;;;;;4956993;28;20556;-67
2022/07/02 15:11:26;;;;;;;1.77;1.67;;;26.50;99.90;;;;;;4956905;28;20548;-68
2022/07/02 15:17:21;;;;;;;1.90;1.70;;;26.70;99.90;;;;;;4957876;28;20512;-68
2022/07/02 15:20:12;;;;;;;3.30;1.80;;;26.90;99.90;;;;;;4958852;28;20551;-67
2022/07/02 15:23:09;;;;;;;1.73;1.57;;;26.80;99.90;;;;;;4955672;28;20476;-67
2022/07/02 15:26:01;;;;;;;1.70;1.60;;;26.70;99.90;;;;;;4955780;28;21061;-66
2022/07/02 15:28:50;;;;;;;2.50;1.80;;;26.70;99.90;;;;;;4956712;28;20553;-67
2022/07/02 15:31:41;;;;;;;2.30;1.80;;;26.70;99.90;;;;;;4952069;28;20542;-67
2022/07/02 15:34:38;;;;;;;1.33;1.30;;;26.70;99.90;;;;;;4955188;28;20817;-69
2022/07/02 15:37:36;;;;;;;1.50;1.40;;;26.50;99.90;;;;;;4956396;28;20812;-69
2022/07/02 15:40:25;;;;;;;1.83;1.57;;;26.50;99.90;;;;;;4954624;28;20534;-68
2022/07/02 15:43:16;;;;;;;2.60;1.53;;;;;;;;;;4957389;28;20546;-68
2022/07/02 15:46:05;;;;;;;2.50;1.30;;;;;;;;;;4958403;28;20470;-68
2022/07/02 15:48:54;;;;;;;1.87;1.27;;;;;;;;;;4958158;28;20477;-68
2022/07/02 15:51:44;;;;;;;1.50;1.40;;;;;;;;;;4950025;28;20498;-68
2022/07/02 15:54:39;;;;;;;2.23;1.80;;;;;;;;;;4957430;28;20527;-68
2022/07/02 15:57:32;;;;;;;2.40;1.87;;;;;;;;;;4956525;28;20454;-68
2022/07/02 16:00:22;;;;;;;2.67;1.57;;;26.60;99.90;;;;;;4950525;28;20558;-67
2022/07/02 16:03:12;;;;;;;2.10;1.60;;;;;;;;;;4951292;28;20871;-67
2022/07/02 16:06:01;;;;;;;1.77;1.40;;;27.00;99.90;;;;;;4955271;28;20487;-67
2022/07/02 16:08:51;;;;;;;1.93;1.57;;;26.80;99.90;;;;;;4952958;28;20538;-67
2022/07/02 16:11:46;;;;;;;3.27;2.97;;;26.90;99.90;;;;;;4954297;28;20983;-68